createdAt,value
2023-10-28T00:01:28.266Z,99354.50
2023-10-28T00:03:58.719Z,99350.20
2023-10-28T00:06:28.486Z,99349.19
2023-10-28T00:09:01.175Z,99353.82
2023-10-28T00:11:33.736Z,99354.18
2023-10-28T00:14:03.639Z,99354.76
2023-10-28T00:16:33.453Z,99353.27
2023-10-28T00:19:05.083Z,99348.33
2023-10-28T00:21:35.845Z,99351.77
2023-10-28T00:24:06.404Z,99349.92
2023-10-28T00:26:38.567Z,99345.71
2023-10-28T00:29:08.958Z,99351.08
2023-10-28T00:31:38.789Z,99351.08
2023-10-28T00:34:10.179Z,99350.38
2023-10-28T00:36:42.105Z,99345.95
2023-10-28T00:39:12.428Z,99343.33
2023-10-28T00:41:44.956Z,99339.30
2023-10-28T00:44:15.568Z,99338.65
2023-10-28T00:46:45.821Z,99337.94
2023-10-28T00:49:16.612Z,99335.17
2023-10-28T00:51:47.082Z,99337.80
2023-10-28T00:54:16.888Z,99338.40
2023-10-28T00:56:48.943Z,99338.36
2023-10-28T00:59:19.860Z,99333.96
2023-10-28T01:01:52.912Z,99336.99
2023-10-28T01:04:25.299Z,99338.23
2023-10-28T01:06:58.137Z,99333.00
2023-10-28T01:09:27.972Z,99334.48
2023-10-28T01:12:00.282Z,99334.21
2023-10-28T01:14:30.490Z,99335.67
2023-10-28T01:17:06.007Z,99338.48
2023-10-28T01:19:36.132Z,99336.44
2023-10-28T01:22:06.429Z,99335.06
2023-10-28T01:24:40.652Z,99338.65
2023-10-28T01:27:11.138Z,99333.70
2023-10-28T01:29:43.372Z,99336.71
2023-10-28T01:32:13.385Z,99336.70
2023-10-28T01:34:50.711Z,99331.45
2023-10-28T01:37:21.703Z,99331.78
2023-10-28T01:39:53.233Z,99330.37
2023-10-28T01:42:23.716Z,99329.21
2023-10-28T01:44:53.454Z,99327.89
2023-10-28T01:47:24.310Z,99326.48
2023-10-28T01:49:54.510Z,99326.56
2023-10-28T01:52:24.661Z,99321.75
2023-10-28T01:54:57.191Z,99323.75
2023-10-28T01:57:26.983Z,99322.77
2023-10-28T01:59:56.755Z,99317.70
2023-10-28T02:02:27.072Z,99316.80
2023-10-28T02:04:56.979Z,99315.95
2023-10-28T02:07:30.242Z,99317.11
2023-10-28T02:10:01.104Z,99319.95
2023-10-28T02:12:35.631Z,99318.97
2023-10-28T02:15:08.059Z,99318.98
2023-10-28T02:17:38.312Z,99322.23
2023-10-28T02:20:11.588Z,99321.31
2023-10-28T02:22:41.662Z,99321.48
2023-10-28T02:25:11.758Z,99322.94
2023-10-28T02:27:41.700Z,99318.86
2023-10-28T02:30:14.733Z,99323.88
2023-10-28T02:32:45.316Z,99317.73
2023-10-28T02:35:15.294Z,99319.47
2023-10-28T02:37:45.157Z,99313.06
2023-10-28T02:40:17.704Z,99310.16
2023-10-28T02:42:47.448Z,99308.97
2023-10-28T02:45:17.794Z,99307.86
2023-10-28T02:47:47.620Z,99306.16
2023-10-28T02:50:20.701Z,99297.73
2023-10-28T02:52:51.732Z,99296.13
2023-10-28T02:55:22.807Z,99293.63
2023-10-28T02:57:54.735Z,99294.98
2023-10-28T03:00:24.506Z,99289.08
2023-10-28T03:02:56.699Z,99292.61
2023-10-28T03:05:27.091Z,99295.27
2023-10-28T03:07:59.987Z,99286.19
2023-10-28T03:10:32.312Z,99286.27
2023-10-28T03:13:05.073Z,99287.13
2023-10-28T03:15:34.918Z,99284.05
2023-10-28T03:18:07.225Z,99279.66
2023-10-28T03:20:36.984Z,99281.98
2023-10-28T03:23:12.226Z,99278.70
2023-10-28T03:25:42.709Z,99282.11
2023-10-28T03:28:12.627Z,99281.27
2023-10-28T03:30:44.692Z,99279.81
2023-10-28T03:33:14.542Z,99275.23
2023-10-28T03:35:44.294Z,99275.46
2023-10-28T03:38:16.541Z,99277.30
2023-10-28T03:40:49.306Z,99277.02
2023-10-28T03:43:24.008Z,99275.70
2023-10-28T03:45:53.757Z,99273.67
2023-10-28T03:48:23.849Z,99278.86
2023-10-28T03:51:02.206Z,99277.78
2023-10-28T03:53:33.229Z,99280.72
2023-10-28T03:56:04.011Z,99280.60
2023-10-28T03:58:36.344Z,99274.48
2023-10-28T04:01:06.525Z,99278.21
2023-10-28T04:03:39.191Z,99275.77
2023-10-28T04:06:09.005Z,99280.20
2023-10-28T04:08:39.352Z,99274.23
2023-10-28T04:11:10.438Z,99266.27
2023-10-28T04:13:40.944Z,99265.46
2023-10-28T04:16:13.006Z,99263.96
2023-10-28T04:18:43.108Z,99268.52
2023-10-28T04:21:15.273Z,99268.20
2023-10-28T04:23:45.087Z,99267.11
2023-10-28T04:26:14.859Z,99262.95
2023-10-28T04:28:44.933Z,99262.78
2023-10-28T04:31:16.967Z,99257.48
2023-10-28T04:33:48.884Z,99261.50
2023-10-28T04:36:20.914Z,99266.38
2023-10-28T04:38:50.682Z,99260.21
2023-10-28T04:41:22.797Z,99266.39
2023-10-28T04:43:52.740Z,99262.77
2023-10-28T04:46:24.934Z,99264.39
2023-10-28T04:48:54.789Z,99261.89
2023-10-28T04:51:25.836Z,99269.36
2023-10-28T04:53:57.352Z,99265.16
2023-10-28T04:56:27.232Z,99261.17
2023-10-28T04:58:57.162Z,99257.67
2023-10-28T05:01:27.127Z,99252.77
2023-10-28T05:03:56.886Z,99252.55
2023-10-28T05:06:26.750Z,99256.18
2023-10-28T05:08:56.484Z,99256.64
2023-10-28T05:11:28.744Z,99248.33
2023-10-28T05:13:58.936Z,99248.15
2023-10-28T05:16:32.234Z,99249.32
2023-10-28T05:19:04.381Z,99254.17
2023-10-28T05:21:35.563Z,99257.05
2023-10-28T05:24:06.917Z,99256.02
2023-10-28T05:26:36.667Z,99259.05
2023-10-28T05:29:08.638Z,99254.98
2023-10-28T05:31:41.005Z,99260.60
2023-10-28T05:34:10.801Z,99255.73
2023-10-28T05:36:45.386Z,99252.38
2023-10-28T05:39:15.224Z,99249.63
2023-10-28T05:41:45.556Z,99246.94
2023-10-28T05:44:16.100Z,99246.73
2023-10-28T05:46:46.649Z,99247.33
2023-10-28T05:49:19.511Z,99246.60
2023-10-28T05:51:49.510Z,99247.22
2023-10-28T05:54:19.263Z,99251.34
2023-10-28T05:56:51.779Z,99249.08
2023-10-28T05:59:21.684Z,99256.69
2023-10-28T06:01:54.313Z,99255.56
2023-10-28T06:04:24.408Z,99259.50
2023-10-28T06:06:54.129Z,99261.27
2023-10-28T06:09:24.672Z,99260.96
2023-10-28T06:11:56.037Z,99260.11
2023-10-28T06:14:28.474Z,99262.17
2023-10-28T06:16:58.366Z,99265.80
2023-10-28T06:19:28.431Z,99264.47
2023-10-28T06:22:00.546Z,99262.98
2023-10-28T06:24:30.470Z,99269.06
2023-10-28T06:27:00.404Z,99267.27
2023-10-28T06:29:31.006Z,99270.81
2023-10-28T06:32:01.549Z,99272.35
2023-10-28T06:34:32.649Z,99272.68
2023-10-28T06:37:04.640Z,99275.45
2023-10-28T06:39:37.513Z,99273.30
2023-10-28T06:42:07.844Z,99278.49
2023-10-28T06:44:40.534Z,99277.99
2023-10-28T06:47:10.769Z,99284.10
2023-10-28T06:49:43.092Z,99288.04
2023-10-28T06:52:15.545Z,99288.05
2023-10-28T06:54:47.965Z,99290.27
2023-10-28T06:57:20.677Z,99298.35
2023-10-28T06:59:50.986Z,99303.27
2023-10-28T07:02:20.896Z,99300.38
2023-10-28T07:04:51.971Z,99305.29
2023-10-28T07:07:24.397Z,99302.77
2023-10-28T07:09:55.117Z,99300.52
2023-10-28T07:12:24.977Z,99309.39
2023-10-28T07:14:55.581Z,99315.20
2023-10-28T07:17:25.382Z,99317.60
2023-10-28T07:19:55.715Z,99321.27
2023-10-28T07:22:26.931Z,99320.42
2023-10-28T07:24:57.035Z,99323.01
2023-10-28T07:27:27.640Z,99322.43
2023-10-28T07:29:57.560Z,99325.17
2023-10-28T07:32:27.672Z,99328.91
2023-10-28T07:34:57.686Z,99328.36
2023-10-28T07:37:30.750Z,99331.67
2023-10-28T07:40:02.147Z,99337.81
2023-10-28T07:42:32.005Z,99342.95
2023-10-28T07:45:02.403Z,99343.91
2023-10-28T07:47:32.699Z,99355.18
2023-10-28T07:50:03.166Z,99358.42
2023-10-28T07:52:33.128Z,99362.33
2023-10-28T07:55:06.116Z,99360.69
2023-10-28T07:57:35.848Z,99364.48
2023-10-28T08:00:12.506Z,99368.80
2023-10-28T08:02:46.422Z,99376.83
2023-10-28T08:05:19.079Z,99383.07
2023-10-28T08:07:51.334Z,99386.84
2023-10-28T08:10:24.686Z,99386.77
2023-10-28T08:12:55.846Z,99385.53
2023-10-28T08:15:26.622Z,99384.27
2023-10-28T08:17:57.311Z,99387.17
2023-10-28T08:20:29.921Z,99385.56
2023-10-28T08:23:02.178Z,99390.54
2023-10-28T08:25:32.896Z,99390.73
2023-10-28T08:28:04.112Z,99396.67
2023-10-28T08:30:37.084Z,99395.75
2023-10-28T08:33:07.120Z,99394.60
2023-10-28T08:35:39.152Z,99400.09
2023-10-28T08:38:09.082Z,99400.94
2023-10-28T08:40:44.905Z,99404.59
2023-10-28T08:43:15.822Z,99405.70
2023-10-28T08:45:48.825Z,99405.57
2023-10-28T08:48:22.001Z,99401.80
2023-10-28T08:50:57.124Z,99406.38
2023-10-28T08:53:28.199Z,99414.42
2023-10-28T08:56:02.244Z,99408.39
2023-10-28T08:58:32.050Z,99412.77
2023-10-28T09:01:03.306Z,99413.58
2023-10-28T09:03:35.392Z,99411.04
2023-10-28T09:06:08.910Z,99415.04
2023-10-28T09:08:39.649Z,99421.21
2023-10-28T09:11:13.844Z,99423.46
2023-10-28T09:13:46.498Z,99418.60
2023-10-28T09:16:16.666Z,99421.00
2023-10-28T09:18:51.988Z,99425.83
2023-10-28T09:21:22.055Z,99428.48
2023-10-28T09:23:54.349Z,99434.91
2023-10-28T09:26:26.708Z,99428.77
2023-10-28T09:28:56.488Z,99431.83
2023-10-28T09:31:29.558Z,99433.39
2023-10-28T09:34:00.915Z,99432.50
2023-10-28T09:36:31.682Z,99431.14
2023-10-28T09:39:05.632Z,99437.56
2023-10-28T09:41:35.782Z,99436.05
2023-10-28T09:44:10.149Z,99432.84
2023-10-28T09:46:44.609Z,99429.08
2023-10-28T09:49:15.231Z,99433.42
2023-10-28T09:51:53.950Z,99426.14
2023-10-28T09:54:28.951Z,99431.59
2023-10-28T09:57:01.566Z,99437.36
2023-10-28T09:59:37.569Z,99436.34
2023-10-28T10:02:26.188Z,99438.73
2023-10-28T10:05:01.158Z,99437.57
2023-10-28T10:07:33.815Z,99439.67
2023-10-28T10:10:17.459Z,99447.49
2023-10-28T10:12:51.757Z,99446.90
2023-10-28T10:15:23.674Z,99445.95
2023-10-28T10:18:05.928Z,99441.90
2023-10-28T10:20:40.244Z,99443.11
2023-10-28T10:23:11.150Z,99443.64
2023-10-28T10:25:46.390Z,99439.63
2023-10-28T10:28:19.679Z,99441.61
2023-10-28T10:30:49.553Z,99443.44
2023-10-28T10:33:31.226Z,99438.15
2023-10-28T10:36:01.597Z,99440.14
2023-10-28T10:38:31.822Z,99438.26
2023-10-28T10:41:01.974Z,99438.52
2023-10-28T10:43:34.835Z,99434.54
2023-10-28T10:46:08.506Z,99432.75
2023-10-28T10:48:39.310Z,99429.03
2023-10-28T10:51:09.722Z,99424.19
2023-10-28T10:53:47.560Z,99428.66
2023-10-28T10:56:26.384Z,99429.27
2023-10-28T10:58:56.236Z,99431.70
2023-10-28T11:01:26.669Z,99433.92
2023-10-28T11:04:03.436Z,99434.65
2023-10-28T11:06:33.244Z,99430.95
2023-10-28T11:09:07.136Z,99429.02
2023-10-28T11:11:38.332Z,99434.27
2023-10-28T11:14:08.593Z,99434.57
2023-10-28T11:16:41.047Z,99434.52
2023-10-28T11:19:11.378Z,99429.64
2023-10-28T11:21:42.067Z,99430.42
2023-10-28T11:24:15.925Z,99436.45
2023-10-28T11:26:48.994Z,99430.85
2023-10-28T11:29:21.333Z,99428.14
2023-10-28T11:31:54.236Z,99424.48
2023-10-28T11:34:25.195Z,99426.60
2023-10-28T11:36:58.128Z,99426.04
2023-10-28T11:39:31.248Z,99430.31
2023-10-28T11:42:09.913Z,99427.61
2023-10-28T11:44:41.699Z,99432.64
2023-10-28T11:47:13.965Z,99439.96
2023-10-28T11:49:46.489Z,99435.66
2023-10-28T11:52:18.610Z,99439.32
2023-10-28T11:54:48.713Z,99441.19
2023-10-28T11:57:18.463Z,99449.77
2023-10-28T11:59:51.156Z,99451.10
2023-10-28T12:02:21.093Z,99453.91
2023-10-28T12:04:53.176Z,99459.30
2023-10-28T12:07:23.048Z,99456.02
2023-10-28T12:09:52.808Z,99457.36
2023-10-28T12:12:22.520Z,99460.38
2023-10-28T12:14:54.596Z,99465.52
2023-10-28T12:17:24.474Z,99466.57
2023-10-28T12:20:00.287Z,99467.00
2023-10-28T12:22:30.085Z,99462.02
2023-10-28T12:24:59.850Z,99465.06
2023-10-28T12:27:33.613Z,99458.31
2023-10-28T12:30:07.268Z,99454.42
2023-10-28T12:32:39.654Z,99452.55
2023-10-28T12:35:10.165Z,99445.61
2023-10-28T12:37:42.863Z,99449.20
2023-10-28T12:40:13.867Z,99449.89
2023-10-28T12:42:43.791Z,99450.47
2023-10-28T12:45:13.691Z,99453.27
2023-10-28T12:47:43.628Z,99448.92
2023-10-28T12:50:18.254Z,99449.01
2023-10-28T12:52:46.505Z,99443.75
2023-10-28T12:55:16.571Z,99443.08
2023-10-28T12:57:46.355Z,99442.42
2023-10-28T13:00:21.598Z,99443.71
2023-10-28T13:02:53.521Z,99439.34
2023-10-28T13:05:25.870Z,99447.32
2023-10-28T13:07:55.657Z,99450.39
2023-10-28T13:10:28.687Z,99451.91
2023-10-28T13:13:00.764Z,99447.92
2023-10-28T13:15:30.437Z,99444.48
2023-10-28T13:18:00.315Z,99449.13
2023-10-28T13:20:30.317Z,99441.95
2023-10-28T13:23:01.734Z,99440.41
2023-10-28T13:25:32.333Z,99446.44
2023-10-28T13:28:02.094Z,99447.48
2023-10-28T13:30:35.173Z,99443.30
2023-10-28T13:33:05.697Z,99444.52
2023-10-28T13:35:35.666Z,99443.67
2023-10-28T13:38:05.524Z,99450.48
2023-10-28T13:40:35.294Z,99446.56
2023-10-28T13:43:05.062Z,99440.66
2023-10-28T13:45:37.152Z,99436.73
2023-10-28T13:48:08.484Z,99435.48
2023-10-28T13:50:40.804Z,99440.15
2023-10-28T13:53:11.547Z,99441.16
2023-10-28T13:55:41.243Z,99448.04
2023-10-28T13:58:10.969Z,99438.95
2023-10-28T14:00:40.731Z,99443.14
2023-10-28T14:03:13.845Z,99452.84
2023-10-28T14:05:43.680Z,99446.29
2023-10-28T14:08:13.433Z,99444.46
2023-10-28T14:10:48.105Z,99441.59
2023-10-28T14:13:16.280Z,99441.60
2023-10-28T14:15:46.044Z,99441.00
2023-10-28T14:18:19.726Z,99437.77
2023-10-28T14:20:52.778Z,99434.79
2023-10-28T14:23:25.712Z,99436.44
2023-10-28T14:25:56.478Z,99436.19
2023-10-28T14:28:26.237Z,99434.24
2023-10-28T14:30:57.489Z,99432.45
2023-10-28T14:33:29.973Z,99432.19
2023-10-28T14:36:08.314Z,99433.28
2023-10-28T14:38:41.173Z,99439.86
2023-10-28T14:41:14.254Z,99442.03
2023-10-28T14:43:44.693Z,99446.13
2023-10-28T14:46:14.430Z,99440.60
2023-10-28T14:48:44.350Z,99440.57
2023-10-28T14:51:16.434Z,99434.93
2023-10-28T14:53:46.425Z,99433.13
2023-10-28T14:56:16.344Z,99424.41
2023-10-28T14:58:46.108Z,99418.54
2023-10-28T15:01:18.441Z,99413.17
2023-10-28T15:03:48.448Z,99398.80
2023-10-28T15:06:20.306Z,99404.40
2023-10-28T15:08:51.262Z,99402.59
2023-10-28T15:11:22.264Z,99404.17
2023-10-28T15:13:52.160Z,99392.35
2023-10-28T15:16:24.632Z,99390.52
2023-10-28T15:18:55.313Z,99387.61
2023-10-28T15:21:28.569Z,99387.09
2023-10-28T15:24:00.669Z,99385.95
2023-10-28T15:26:30.616Z,99383.10
2023-10-28T15:29:00.850Z,99381.30
2023-10-28T15:31:30.710Z,99393.67
2023-10-28T15:34:02.898Z,99401.42
2023-10-28T15:36:32.800Z,99397.70
2023-10-28T15:39:02.591Z,99385.55
2023-10-28T15:41:35.561Z,99379.13
2023-10-28T15:44:08.383Z,99368.06
2023-10-28T15:46:40.235Z,99371.89
2023-10-28T15:49:11.311Z,99372.56
2023-10-28T15:51:41.043Z,99376.84
2023-10-28T15:54:10.773Z,99373.80
2023-10-28T15:56:41.728Z,99375.11
2023-10-28T15:59:11.562Z,99373.42
2023-10-28T16:01:42.004Z,99382.83
2023-10-28T16:04:14.492Z,99379.84
2023-10-28T16:06:47.607Z,99380.79
2023-10-28T16:09:17.769Z,99380.90
2023-10-28T16:11:47.630Z,99373.86
2023-10-28T16:14:19.645Z,99376.78
2023-10-28T16:16:49.582Z,99376.33
2023-10-28T16:19:19.693Z,99380.15
2023-10-28T16:21:50.520Z,99374.26
2023-10-28T16:24:20.311Z,99381.67
2023-10-28T16:26:52.129Z,99382.15
2023-10-28T16:29:21.936Z,99380.14
2023-10-28T16:31:55.554Z,99375.89
2023-10-28T16:34:27.498Z,99380.77
2023-10-28T16:36:57.315Z,99378.55
2023-10-28T16:39:27.234Z,99384.58
2023-10-28T16:41:56.961Z,99376.55
2023-10-28T16:44:27.578Z,99375.08
2023-10-28T16:46:57.361Z,99368.34
2023-10-28T16:49:27.186Z,99369.14
2023-10-28T16:52:00.016Z,99369.81
2023-10-28T16:54:32.091Z,99366.05
2023-10-28T16:57:01.857Z,99370.90
2023-10-28T16:59:36.267Z,99369.45
2023-10-28T17:02:09.996Z,99359.47
2023-10-28T17:04:39.958Z,99351.70
2023-10-28T17:07:12.056Z,99345.08
2023-10-28T17:09:42.490Z,99351.11
2023-10-28T17:12:12.498Z,99348.80
2023-10-28T17:14:44.589Z,99341.98
2023-10-28T17:17:16.567Z,99338.19
2023-10-28T17:19:48.557Z,99340.52
2023-10-28T17:22:18.279Z,99338.20
2023-10-28T17:24:52.514Z,99338.27
2023-10-28T17:27:25.743Z,99332.85
2023-10-28T17:29:55.779Z,99328.96
2023-10-28T17:32:27.897Z,99328.98
2023-10-28T17:34:58.710Z,99316.95
2023-10-28T17:37:28.444Z,99309.98
2023-10-28T17:39:58.191Z,99306.64
2023-10-28T17:42:30.396Z,99309.16
2023-10-28T17:45:02.924Z,99309.61
2023-10-28T17:47:33.050Z,99313.78
2023-10-28T17:50:08.281Z,99310.80
2023-10-28T17:52:38.569Z,99308.48
2023-10-28T17:55:12.039Z,99309.05
2023-10-28T17:57:42.031Z,99307.55
2023-10-28T18:00:13.166Z,99313.77
2023-10-28T18:02:45.479Z,99309.34
2023-10-28T18:05:16.093Z,99306.91
2023-10-28T18:07:46.800Z,99302.68
2023-10-28T18:10:18.740Z,99292.83
2023-10-28T18:12:52.769Z,99292.40
2023-10-28T18:15:22.593Z,99287.09
2023-10-28T18:17:52.695Z,99282.16
2023-10-28T18:20:22.510Z,99275.95
2023-10-28T18:22:53.734Z,99276.95
2023-10-28T18:25:25.671Z,99276.91
2023-10-28T18:27:55.936Z,99274.02
2023-10-28T18:30:28.682Z,99268.08
2023-10-28T18:33:01.085Z,99257.29
2023-10-28T18:35:34.053Z,99257.56
2023-10-28T18:38:04.108Z,99258.09
2023-10-28T18:40:34.620Z,99256.19
2023-10-28T18:43:04.483Z,99243.55
2023-10-28T18:45:36.161Z,99237.91
2023-10-28T18:48:07.556Z,99232.23
2023-10-28T18:50:40.569Z,99228.65
2023-10-28T18:53:10.915Z,99227.67
2023-10-28T18:55:40.729Z,99224.85
2023-10-28T18:58:13.311Z,99224.52
2023-10-28T19:00:43.012Z,99224.61
2023-10-28T19:03:14.745Z,99224.02
2023-10-28T19:05:47.186Z,99219.83
2023-10-28T19:08:16.988Z,99216.90
2023-10-28T19:10:54.043Z,99211.73
2023-10-28T19:13:23.989Z,99210.35
2023-10-28T19:15:53.800Z,99203.01
2023-10-28T19:18:23.905Z,99198.31
2023-10-28T19:20:53.704Z,99201.77
2023-10-28T19:23:26.057Z,99203.60
2023-10-28T19:25:55.901Z,99202.16
2023-10-28T19:28:25.853Z,99200.77
2023-10-28T19:30:55.943Z,99189.05
2023-10-28T19:33:26.508Z,99183.80
2023-10-28T19:36:00.548Z,99175.26
2023-10-28T19:38:33.448Z,99176.13
2023-10-28T19:41:03.221Z,99171.67
2023-10-28T19:43:35.149Z,99173.59
2023-10-28T19:46:11.375Z,99169.09
2023-10-28T19:48:43.169Z,99163.90
2023-10-28T19:51:15.507Z,99165.88
2023-10-28T19:53:46.569Z,99161.29
2023-10-28T19:56:16.555Z,99160.10
2023-10-28T19:58:48.610Z,99156.52
2023-10-28T20:01:20.612Z,99153.81
2023-10-28T20:03:55.886Z,99148.86
2023-10-28T20:06:28.819Z,99142.30
2023-10-28T20:08:58.829Z,99137.55
2023-10-28T20:11:28.676Z,99144.70
2023-10-28T20:13:58.582Z,99141.05
2023-10-28T20:16:28.324Z,99136.30
2023-10-28T20:19:00.599Z,99131.55
2023-10-28T20:21:30.423Z,99130.03
2023-10-28T20:24:00.239Z,99127.13
2023-10-28T20:26:30.379Z,99125.13
2023-10-28T20:29:00.192Z,99122.63
2023-10-28T20:31:30.016Z,99119.42
2023-10-28T20:33:59.712Z,99122.48
2023-10-28T20:36:29.977Z,99121.05
2023-10-28T20:38:59.726Z,99113.73
2023-10-28T20:41:32.662Z,99114.93
2023-10-28T20:44:02.491Z,99106.09
2023-10-28T20:46:32.330Z,99102.69
2023-10-28T20:49:06.967Z,99087.84
2023-10-28T20:51:36.780Z,99076.88
2023-10-28T20:54:09.320Z,99068.00
2023-10-28T20:56:40.015Z,99063.73
2023-10-28T20:59:09.818Z,99049.76
2023-10-28T21:01:42.603Z,99041.74
2023-10-28T21:04:15.136Z,99039.21
2023-10-28T21:06:45.429Z,99037.38
2023-10-28T21:09:17.306Z,99026.08
2023-10-28T21:11:47.121Z,99023.97
2023-10-28T21:14:16.966Z,99017.27
2023-10-28T21:16:46.700Z,99018.64
2023-10-28T21:19:20.278Z,99013.47
2023-10-28T21:21:54.148Z,99003.33
2023-10-28T21:24:26.911Z,99006.88
2023-10-28T21:26:56.834Z,99008.09
2023-10-28T21:29:27.117Z,99007.02
2023-10-28T21:31:57.228Z,99003.90
2023-10-28T21:34:30.349Z,98995.70
2023-10-28T21:37:00.160Z,99002.08
2023-10-28T21:39:33.056Z,98997.09
2023-10-28T21:42:03.010Z,98989.61
2023-10-28T21:44:32.769Z,98982.11
2023-10-28T21:47:05.453Z,98976.67
2023-10-28T21:49:35.810Z,98963.56
2023-10-28T21:52:06.251Z,98963.86
2023-10-28T21:54:39.231Z,98964.17
2023-10-28T21:57:13.240Z,98957.23
2023-10-28T21:59:43.723Z,98955.94
2023-10-28T22:02:18.457Z,98955.55
2023-10-28T22:04:49.616Z,98943.26
2023-10-28T22:07:19.638Z,98939.00
2023-10-28T22:09:52.444Z,98947.14
2023-10-28T22:12:22.396Z,98957.12
2023-10-28T22:14:52.164Z,98953.73
2023-10-28T22:17:26.597Z,98944.45
2023-10-28T22:19:59.190Z,98939.12
2023-10-28T22:22:33.563Z,98938.33
2023-10-28T22:25:06.611Z,98940.60
2023-10-28T22:27:37.554Z,98945.38
2023-10-28T22:30:09.757Z,98935.33
2023-10-28T22:32:39.983Z,98935.34
2023-10-28T22:35:12.498Z,98933.80
2023-10-28T22:37:42.329Z,98940.44
2023-10-28T22:40:13.731Z,98937.55
2023-10-28T22:42:44.400Z,98928.44
2023-10-28T22:45:14.801Z,98935.05
2023-10-28T22:47:44.772Z,98921.79
2023-10-28T22:50:14.500Z,98925.13
2023-10-28T22:52:44.503Z,98924.03
2023-10-28T22:55:14.925Z,98908.18
2023-10-28T22:57:47.022Z,98921.83
2023-10-28T23:00:17.797Z,98922.79
2023-10-28T23:02:50.808Z,98924.90
2023-10-28T23:05:20.603Z,98928.25
2023-10-28T23:07:51.682Z,98932.05
2023-10-28T23:10:21.449Z,98936.31
2023-10-28T23:12:51.294Z,98939.59
2023-10-28T23:15:22.015Z,98936.63
2023-10-28T23:17:52.436Z,98934.38
2023-10-28T23:20:25.740Z,98930.89
2023-10-28T23:22:56.920Z,98930.79
2023-10-28T23:25:26.785Z,98936.64
2023-10-28T23:27:58.223Z,98939.55
2023-10-28T23:30:30.268Z,98943.45
2023-10-28T23:33:05.516Z,98937.31
2023-10-28T23:35:40.003Z,98931.62
2023-10-28T23:38:10.345Z,98948.43
2023-10-28T23:40:40.219Z,98944.28
2023-10-28T23:43:10.109Z,98945.08
2023-10-28T23:45:40.006Z,98937.30
2023-10-28T23:48:09.842Z,98940.97
2023-10-28T23:50:39.746Z,98934.41
2023-10-28T23:53:12.349Z,98924.98
2023-10-28T23:55:42.796Z,98926.81
2023-10-28T23:58:12.689Z,98927.77
